Time;durP1;ratioP1;P1;durP2;ratioP2;P2;SDS_P1;SDS_P2;PMS_P1;PMS_P2;Temp;Humidity;BMP_temperature;BMP_pressure;BME280_temperature;BME280_humidity;BME280_pressure;Samples;Min_cycle;Max_cycle;Signal;HPM_P1;HPM_P2
2023/09/17 00:02:15;;;;;;;;;;;16.00;99.90;;;;;;4934166;28;19933;-85
2023/09/17 00:04:40;;;;;;;;;;;16.00;99.90;;;;;;4917978;29;19927;-86
2023/09/17 00:07:06;;;;;;;;;;;16.00;99.90;;;;;;4936795;28;19930;-85
2023/09/17 00:09:32;;;;;;;;;;;16.00;99.90;;;;;;4935608;29;19950;-85
2023/09/17 00:11:57;;;;;;;;;;;15.90;99.90;;;;;;4934317;29;19938;-84
2023/09/17 00:14:23;;;;;;;;;;;15.90;99.90;;;;;;4934285;29;20044;-84
2023/09/17 00:16:49;;;;;;;;;;;15.90;99.90;;;;;;4934344;28;19938;-85
2023/09/17 00:19:14;;;;;;;;;;;15.90;99.90;;;;;;4933731;28;20024;-85
2023/09/17 00:21:40;;;;;;;;;;;15.90;99.90;;;;;;4935948;28;19926;-85
2023/09/17 00:24:06;;;;;;;;;;;15.90;99.90;;;;;;4932401;29;19934;-85
2023/09/17 00:26:31;;;;;;;;;;;16.00;99.90;;;;;;4929558;29;19934;-86
2023/09/17 00:28:57;;;;;;;;;;;16.00;99.90;;;;;;4930455;29;20015;-86
2023/09/17 00:31:23;;;;;;;;;;;16.00;99.90;;;;;;4933600;29;19930;-86
2023/09/17 00:33:48;;;;;;;;;;;16.00;99.90;;;;;;4933448;29;19927;-86
2023/09/17 00:36:14;;;;;;;;;;;16.00;99.90;;;;;;4932825;28;19934;-86
2023/09/17 00:38:39;;;;;;;;;;;16.00;99.90;;;;;;4934963;29;19973;-85
2023/09/17 00:41:05;;;;;;;;;;;16.00;99.90;;;;;;4934066;28;20320;-85
2023/09/17 00:43:31;;;;;;;;;;;16.00;99.90;;;;;;4933076;29;19927;-85
2023/09/17 00:45:57;;;;;;;;;;;16.00;99.90;;;;;;4936418;28;19927;-86
2023/09/17 00:48:22;;;;;;;;;;;16.10;99.90;;;;;;4934522;29;19927;-86
2023/09/17 00:50:48;;;;;;;;;;;16.00;99.90;;;;;;4920463;29;19926;-85
2023/09/17 00:53:14;;;;;;;;;;;16.00;99.90;;;;;;4918438;29;19946;-85
2023/09/17 00:55:39;;;;;;;;;;;16.10;99.90;;;;;;4921111;29;19934;-85
2023/09/17 00:58:06;;;;;;;;;;;16.10;99.90;;;;;;4944198;28;19941;-86
2023/09/17 01:00:33;;;;;;;;;;;16.10;99.90;;;;;;4933353;29;19934;-85
2023/09/17 01:03:04;;;;;;;;;;;16.10;99.90;;;;;;4933894;29;20267;-85
2023/09/17 01:05:36;;;;;;;;;;;16.00;99.90;;;;;;4902528;29;19930;-85
2023/09/17 01:08:11;;;;;;;;;;;16.10;99.90;;;;;;4933550;29;19927;-85
2023/09/17 01:10:40;;;;;;;;;;;16.10;99.90;;;;;;4934380;29;19934;-85
2023/09/17 01:13:06;;;;;;;;;;;16.00;99.90;;;;;;4933220;29;19927;-85
2023/09/17 01:15:34;;;;;;;;;;;16.10;99.90;;;;;;4933431;29;19935;-86
2023/09/17 01:18:02;;;;;;;;;;;16.10;99.90;;;;;;4933049;28;20519;-84
2023/09/17 01:20:30;;;;;;;;;;;16.00;99.90;;;;;;4929515;28;20374;-85
2023/09/17 01:23:02;;;;;;;;;;;16.00;99.90;;;;;;4914673;29;19927;-85
2023/09/17 01:25:32;;;;;;;;;;;16.00;99.90;;;;;;4933280;29;19981;-85
2023/09/17 01:27:58;;;;;;;;;;;16.00;99.90;;;;;;4932806;29;19989;-86
2023/09/17 01:30:24;;;;;;;;;;;15.90;99.90;;;;;;4932798;29;19930;-85
2023/09/17 01:32:49;;;;;;;;;;;15.90;99.90;;;;;;4931470;29;19993;-88
2023/09/17 01:35:16;;;;;;;;;;;15.90;99.90;;;;;;4928942;29;20352;-86
2023/09/17 01:37:47;;;;;;;;;;;15.90;99.90;;;;;;4944529;28;19930;-86
2023/09/17 01:40:12;;;;;;;;;;;15.80;99.90;;;;;;4914931;28;20069;-86
2023/09/17 01:42:43;;;;;;;;;;;15.90;99.90;;;;;;4909237;29;20017;-85
2023/09/17 01:45:09;;;;;;;;;;;15.80;99.90;;;;;;4935272;28;19931;-86
2023/09/17 01:47:35;;;;;;;;;;;15.80;99.90;;;;;;4932555;28;19933;-86
2023/09/17 01:50:04;;;;;;;;;;;15.80;99.90;;;;;;4932720;28;20282;-86
2023/09/17 01:52:32;;;;;;;;;;;15.70;99.90;;;;;;4932928;29;19927;-86
2023/09/17 01:55:00;;;;;;;;;;;15.80;99.90;;;;;;4933539;29;20443;-86
2023/09/17 01:57:25;;;;;;;;;;;15.80;99.90;;;;;;4932514;29;19934;-85
2023/09/17 01:59:51;;;;;;;;;;;15.80;99.90;;;;;;4945546;29;19926;-85
2023/09/17 02:02:16;;;;;;;;;;;15.90;99.90;;;;;;4916537;29;19937;-85
2023/09/17 02:04:42;;;;;;;;;;;15.80;99.90;;;;;;4932073;28;19937;-86
2023/09/17 02:07:08;;;;;;;;;;;15.90;99.90;;;;;;4931153;28;19926;-85
2023/09/17 02:09:34;;;;;;;;;;;15.90;99.90;;;;;;4932429;28;19970;-85
2023/09/17 02:12:00;;;;;;;;;;;15.80;99.90;;;;;;4932020;29;20020;-86
2023/09/17 02:14:25;;;;;;;;;;;15.90;99.90;;;;;;4932390;28;19934;-86
2023/09/17 02:16:51;;;;;;;;;;;15.80;99.90;;;;;;4932432;28;20013;-85
2023/09/17 02:19:16;;;;;;;;;;;15.80;99.90;;;;;;4915048;29;20879;-85
2023/09/17 02:21:42;;;;;;;;;;;15.80;99.90;;;;;;4933317;29;19931;-86
2023/09/17 02:24:08;;;;;;;;;;;15.80;99.90;;;;;;4932333;28;19966;-85
2023/09/17 02:26:33;;;;;;;;;;;15.80;99.90;;;;;;4932014;28;19927;-86
2023/09/17 02:28:59;;;;;;;;;;;15.80;99.90;;;;;;4932239;29;19977;-86
2023/09/17 02:31:25;;;;;;;;;;;15.70;99.90;;;;;;4916038;29;19937;-85
2023/09/17 02:33:50;;;;;;;;;;;15.70;99.90;;;;;;4915875;29;19933;-85
2023/09/17 02:36:16;;;;;;;;;;;15.70;99.90;;;;;;4931793;28;20018;-85
2023/09/17 02:38:41;;;;;;;;;;;15.60;99.90;;;;;;4932133;29;19926;-85
2023/09/17 02:41:07;;;;;;;;;;;15.60;99.90;;;;;;4931740;29;19933;-86
2023/09/17 02:43:36;;;;;;;;;;;15.60;99.90;;;;;;4933372;28;20389;-86
2023/09/17 02:46:03;;;;;;;;;;;15.60;99.90;;;;;;4931890;29;19942;-86
2023/09/17 02:48:29;;;;;;;;;;;15.60;99.90;;;;;;4945246;28;19926;-85
2023/09/17 02:50:55;;;;;;;;;;;15.60;99.90;;;;;;4931563;29;19933;-85
2023/09/17 02:53:20;;;;;;;;;;;15.50;99.90;;;;;;4932692;29;19927;-85
2023/09/17 02:55:46;;;;;;;;;;;15.60;99.90;;;;;;4931936;29;20370;-85
2023/09/17 02:58:12;;;;;;;;;;;15.60;99.90;;;;;;4931249;28;19931;-85
2023/09/17 03:00:38;;;;;;;;;;;15.60;99.90;;;;;;4931840;28;20030;-85
2023/09/17 03:03:04;;;;;;;;;;;15.60;99.90;;;;;;4915147;29;20480;-85
2023/09/17 03:05:29;;;;;;;;;;;15.50;99.90;;;;;;4932575;29;19978;-85
2023/09/17 03:07:56;;;;;;;;;;;15.60;99.90;;;;;;4915994;29;19927;-85
2023/09/17 03:10:22;;;;;;;;;;;15.50;99.90;;;;;;4932249;29;20021;-85
2023/09/17 03:12:48;;;;;;;;;;;15.60;99.90;;;;;;4931446;28;19993;-85
2023/09/17 03:15:14;;;;;;;;;;;15.60;99.90;;;;;;4931602;29;20013;-87
2023/09/17 03:17:41;;;;;;;;;;;15.60;99.90;;;;;;4931497;29;20054;-85
2023/09/17 03:20:14;;;;;;;;;;;15.60;99.90;;;;;;4931094;29;19927;-86
2023/09/17 03:22:40;;;;;;;;;;;15.60;99.90;;;;;;4931129;29;20472;-85
2023/09/17 03:25:06;;;;;;;;;;;15.60;99.90;;;;;;4932462;29;19934;-85
2023/09/17 03:27:33;;;;;;;;;;;15.60;99.90;;;;;;4931372;28;19927;-85
2023/09/17 03:29:59;;;;;;;;;;;15.60;99.90;;;;;;4930056;28;19942;-86
2023/09/17 03:32:25;;;;;;;;;;;15.60;99.90;;;;;;4924631;28;19934;-85
2023/09/17 03:34:50;;;;;;;;;;;15.60;99.90;;;;;;4926639;29;19934;-85
2023/09/17 03:37:16;;;;;;;;;;;15.70;99.90;;;;;;4927106;29;19934;-85
2023/09/17 03:39:43;;;;;;;;;;;15.60;99.90;;;;;;4925390;29;19930;-86
2023/09/17 03:42:09;;;;;;;;;;;15.70;99.90;;;;;;4924377;29;20363;-85
2023/09/17 03:44:34;;;;;;;;;;;15.70;99.90;;;;;;4928895;28;20030;-86
2023/09/17 03:47:00;;;;;;;;;;;15.70;99.90;;;;;;4910360;29;20418;-85
2023/09/17 03:49:27;;;;;;;;;;;15.70;99.90;;;;;;4908381;29;20039;-87
2023/09/17 03:51:52;;;;;;;;;;;15.70;99.90;;;;;;4926605;29;19934;-85
2023/09/17 03:54:18;;;;;;;;;;;15.70;99.90;;;;;;4933495;28;19927;-85
2023/09/17 03:56:44;;;;;;;;;;;15.70;99.90;;;;;;4911040;28;19980;-85
2023/09/17 03:59:09;;;;;;;;;;;15.70;99.90;;;;;;4925798;29;19934;-87
2023/09/17 04:01:37;;;;;;;;;;;15.80;99.90;;;;;;4925935;29;19927;-86
2023/09/17 04:04:03;;;;;;;;;;;15.70;99.90;;;;;;4925766;28;19934;-85
2023/09/17 04:06:29;;;;;;;;;;;15.70;99.90;;;;;;4926130;28;19931;-85
2023/09/17 04:08:55;;;;;;;;;;;15.70;99.90;;;;;;4926549;28;19942;-87
2023/09/17 04:11:20;;;;;;;;;;;15.80;99.90;;;;;;4930798;29;20286;-85
2023/09/17 04:13:46;;;;;;;;;;;15.70;99.90;;;;;;4910447;29;19931;-85
2023/09/17 04:16:12;;;;;;;;;;;15.70;99.90;;;;;;4929131;29;19988;-86
2023/09/17 04:18:38;;;;;;;;;;;15.70;99.90;;;;;;4930366;28;19933;-85
2023/09/17 04:21:03;;;;;;;;;;;15.80;99.90;;;;;;4928740;29;20019;-85
2023/09/17 04:23:29;;;;;;;;;;;15.70;99.90;;;;;;4931035;29;20014;-85
2023/09/17 04:25:55;;;;;;;;;;;15.70;99.90;;;;;;4926632;29;20021;-88
2023/09/17 04:28:20;;;;;;;;;;;15.70;99.90;;;;;;4942621;28;19931;-85
2023/09/17 04:30:46;;;;;;;;;;;15.70;99.90;;;;;;4913654;29;20021;-86
2023/09/17 04:33:11;;;;;;;;;;;15.70;99.90;;;;;;4926576;28;20239;-86
2023/09/17 04:35:37;;;;;;;;;;;15.70;99.90;;;;;;4930253;28;19927;-85
2023/09/17 04:38:04;;;;;;;;;;;15.70;99.90;;;;;;4912804;28;19992;-85
2023/09/17 04:40:29;;;;;;;;;;;15.70;99.90;;;;;;4930701;29;19938;-86
2023/09/17 04:42:55;;;;;;;;;;;15.80;99.90;;;;;;4909120;29;20389;-85
2023/09/17 04:45:34;;;;;;;;;;;15.70;99.90;;;;;;4934699;29;19927;-85
2023/09/17 04:48:00;;;;;;;;;;;15.80;99.90;;;;;;4917850;28;19962;-85
2023/09/17 04:50:25;;;;;;;;;;;15.70;99.90;;;;;;4933600;29;19977;-85
2023/09/17 04:52:51;;;;;;;;;;;15.70;99.90;;;;;;4933576;28;19926;-86
2023/09/17 04:55:17;;;;;;;;;;;15.70;99.90;;;;;;4917699;29;19934;-85
2023/09/17 04:57:43;;;;;;;;;;;15.70;99.90;;;;;;4933559;28;19927;-85
2023/09/17 05:00:11;;;;;;;;;;;15.80;99.90;;;;;;4917685;29;20000;-85
2023/09/17 05:02:39;;;;;;;;;;;15.80;99.90;;;;;;4934744;29;19927;-84
2023/09/17 05:05:09;;;;;;;;;;;15.80;99.90;;;;;;4933095;29;19938;-85
2023/09/17 05:07:37;;;;;;;;;;;15.90;99.90;;;;;;4933496;29;19931;-86
2023/09/17 05:10:03;;;;;;;;;;;15.80;99.90;;;;;;4932072;29;19953;-85
2023/09/17 05:12:29;;;;;;;;;;;15.90;99.90;;;;;;4917481;29;19926;-84
2023/09/17 05:14:54;;;;;;;;;;;15.80;99.90;;;;;;4934390;29;20310;-86
2023/09/17 05:17:20;;;;;;;;;;;15.80;99.90;;;;;;4933361;28;19931;-86
2023/09/17 05:19:46;;;;;;;;;;;15.90;99.90;;;;;;4916755;29;19933;-85
2023/09/17 05:22:11;;;;;;;;;;;15.80;99.90;;;;;;4932408;29;19993;-87
2023/09/17 05:24:37;;;;;;;;;;;15.90;99.90;;;;;;4933965;29;19937;-85
2023/09/17 05:27:03;;;;;;;;;;;15.90;99.90;;;;;;4934345;29;20405;-87
2023/09/17 05:29:28;;;;;;;;;;;15.80;99.90;;;;;;4932724;28;19927;-86
2023/09/17 05:31:54;;;;;;;;;;;15.80;99.90;;;;;;4933321;29;19931;-86
2023/09/17 05:34:20;;;;;;;;;;;15.90;99.90;;;;;;4928031;28;20346;-86
2023/09/17 05:36:45;;;;;;;;;;;15.90;99.90;;;;;;4945732;29;19927;-85
2023/09/17 05:39:11;;;;;;;;;;;15.90;99.90;;;;;;4931458;28;19937;-86
2023/09/17 05:41:37;;;;;;;;;;;15.90;99.90;;;;;;4967161;28;19931;-85
2023/09/17 05:44:03;;;;;;;;;;;15.90;99.90;;;;;;4921069;28;19927;-86
2023/09/17 05:46:30;;;;;;;;;;;16.00;99.90;;;;;;4937314;28;19927;-85
2023/09/17 05:48:56;;;;;;;;;;;16.00;99.90;;;;;;4930943;28;19959;-87
2023/09/17 05:51:22;;;;;;;;;;;16.00;99.90;;;;;;4929409;29;19977;-86
2023/09/17 05:53:48;;;;;;;;;;;16.00;99.90;;;;;;4932612;29;19927;-85
2023/09/17 05:56:13;;;;;;;;;;;16.00;99.90;;;;;;4922914;28;20442;-86
2023/09/17 05:58:39;;;;;;;;;;;16.00;99.90;;;;;;4930438;29;19931;-87
2023/09/17 06:01:05;;;;;;;;;;;16.00;99.90;;;;;;4933372;29;19958;-87
2023/09/17 06:03:31;;;;;;;;;;;16.10;99.90;;;;;;4932958;29;19970;-85
2023/09/17 06:05:56;;;;;;;;;;;16.10;99.90;;;;;;4932666;29;19973;-84
2023/09/17 06:08:22;;;;;;;;;;;16.10;99.90;;;;;;4932586;28;19966;-86
2023/09/17 06:10:48;;;;;;;;;;;16.10;99.90;;;;;;4931884;29;19934;-86
2023/09/17 06:13:14;;;;;;;;;;;16.10;99.90;;;;;;4931817;28;19937;-86
2023/09/17 06:15:39;;;;;;;;;;;16.20;99.90;;;;;;4932157;29;19926;-86
2023/09/17 06:18:05;;;;;;;;;;;16.20;99.90;;;;;;4932239;29;19930;-86
2023/09/17 06:20:30;;;;;;;;;;;16.30;99.90;;;;;;4932109;28;20018;-86
2023/09/17 06:22:56;;;;;;;;;;;16.30;99.90;;;;;;4916222;29;19933;-85
2023/09/17 06:25:22;;;;;;;;;;;16.30;99.90;;;;;;4916679;29;19974;-87
2023/09/17 06:27:47;;;;;;;;;;;16.40;99.90;;;;;;4933399;29;19972;-87
2023/09/17 06:30:14;;;;;;;;;;;16.40;99.90;;;;;;4932348;28;20396;-87
2023/09/17 06:32:39;;;;;;;;;;;16.40;99.90;;;;;;4931250;29;19969;-85
2023/09/17 06:35:05;;;;;;;;;;;16.40;99.90;;;;;;4931362;29;20000;-85
2023/09/17 06:37:31;;;;;;;;;;;16.50;99.90;;;;;;4932380;28;20343;-85
2023/09/17 06:39:57;;;;;;;;;;;16.50;99.90;;;;;;4916579;28;19985;-86
2023/09/17 06:42:23;;;;;;;;;;;16.40;99.90;;;;;;4915825;29;20010;-86
2023/09/17 06:44:48;;;;;;;;;;;16.50;99.90;;;;;;4995950;28;20007;-85
2023/09/17 06:47:15;;;;;;;;;;;16.50;99.90;;;;;;4913847;29;19938;-86
2023/09/17 06:49:41;;;;;;;;;;;16.50;99.90;;;;;;4929804;29;19926;-86
2023/09/17 06:52:07;;;;;;;;;;;16.60;99.90;;;;;;4930296;28;19927;-86
2023/09/17 06:54:33;;;;;;;;;;;16.60;99.90;;;;;;4929939;29;19988;-87
2023/09/17 06:56:58;;;;;;;;;;;16.50;99.90;;;;;;4929177;28;19931;-86
2023/09/17 06:59:26;;;;;;;;;;;16.50;99.90;;;;;;4932021;29;20382;-88
2023/09/17 07:01:52;;;;;;;;;;;16.50;99.90;;;;;;4931972;29;19927;-83
2023/09/17 07:04:17;;;;;;;;;;;16.50;99.90;;;;;;4930742;29;20447;-84
2023/09/17 07:06:43;;;;;;;;;;;16.50;99.90;;;;;;4932939;29;19934;-84
2023/09/17 07:09:08;;;;;;;;;;;16.50;99.90;;;;;;4933660;28;19927;-85
2023/09/17 07:11:34;;;;;;;;;;;16.50;99.90;;;;;;4931685;29;20039;-84
2023/09/17 07:14:04;;;;;;;;;;;16.50;99.90;;;;;;4927974;29;19927;-86
2023/09/17 07:16:29;;;;;;;;;;;16.50;99.90;;;;;;4927442;29;19926;-85
2023/09/17 07:18:55;;;;;;;;;;;16.50;99.90;;;;;;4931916;28;19927;-87
2023/09/17 07:21:21;;;;;;;;;;;16.50;99.90;;;;;;4911293;28;20290;-86
2023/09/17 07:23:50;;;;;;;;;;;16.50;99.90;;;;;;4908036;29;19931;-84
2023/09/17 07:26:16;;;;;;;;;;;16.50;99.90;;;;;;4924358;29;20919;-85
2023/09/17 07:28:43;;;;;;;;;;;16.50;99.90;;;;;;4914449;29;19927;-85
2023/09/17 07:31:10;;;;;;;;;;;16.50;99.90;;;;;;4930927;28;19927;-85
2023/09/17 07:33:36;;;;;;;;;;;16.50;99.90;;;;;;4931795;29;19951;-85
2023/09/17 07:36:02;;;;;;;;;;;16.60;99.90;;;;;;4932313;29;20653;-85
2023/09/17 07:38:28;;;;;;;;;;;16.60;99.90;;;;;;4933636;28;20285;-85
2023/09/17 07:40:54;;;;;;;;;;;16.60;99.90;;;;;;4928216;28;19928;-85
2023/09/17 07:43:20;;;;;;;;;;;16.60;99.90;;;;;;4929450;28;19927;-85
2023/09/17 07:45:45;;;;;;;;;;;16.60;99.90;;;;;;4934686;29;19927;-85
2023/09/17 07:48:11;;;;;;;;;;;16.60;99.90;;;;;;4934842;28;19931;-85
2023/09/17 07:50:36;;;;;;;;;;;16.60;99.90;;;;;;4934768;28;20002;-85
2023/09/17 07:53:02;;;;;;;;;;;16.60;99.90;;;;;;4935160;28;19927;-85
2023/09/17 07:55:29;;;;;;;;;;;16.60;99.90;;;;;;4933943;29;19927;-85
2023/09/17 07:57:55;;;;;;;;;;;16.60;99.90;;;;;;4935184;29;20389;-85
2023/09/17 08:00:21;;;;;;;;;;;16.60;99.90;;;;;;4934754;29;19988;-85
2023/09/17 08:02:47;;;;;;;;;;;16.70;99.90;;;;;;4935353;29;19981;-84
2023/09/17 08:05:13;;;;;;;;;;;16.70;99.90;;;;;;4933726;29;19933;-85
2023/09/17 08:07:41;;;;;;;;;;;16.70;99.90;;;;;;4934054;29;19927;-85
2023/09/17 08:10:08;;;;;;;;;;;16.70;99.90;;;;;;4935449;28;19934;-85
2023/09/17 08:12:33;;;;;;;;;;;16.70;99.90;;;;;;4928630;28;19930;-85
2023/09/17 08:14:59;;;;;;;;;;;16.70;99.90;;;;;;4935433;28;20360;-85
2023/09/17 08:17:25;;;;;;;;;;;16.80;99.90;;;;;;4930814;29;19937;-85
2023/09/17 08:19:51;;;;;;;;;;;16.80;99.90;;;;;;4921735;29;20018;-85
2023/09/17 08:22:16;;;;;;;;;;;16.90;99.90;;;;;;4933911;29;19973;-85
2023/09/17 08:24:43;;;;;;;;;;;16.90;99.90;;;;;;4934766;28;19965;-85
2023/09/17 08:27:09;;;;;;;;;;;17.00;99.90;;;;;;4932697;28;19934;-85
2023/09/17 08:29:34;;;;;;;;;;;17.00;99.90;;;;;;4934322;29;20315;-85
2023/09/17 08:32:00;;;;;;;;;;;17.00;99.90;;;;;;4934966;29;19926;-85
2023/09/17 08:34:26;;;;;;;;;;;17.10;99.90;;;;;;4933603;29;19995;-86
2023/09/17 08:36:53;;;;;;;;;;;17.10;99.90;;;;;;4933557;29;19927;-85
2023/09/17 08:39:19;;;;;;;;;;;17.20;99.90;;;;;;4934469;29;20092;-86
2023/09/17 08:41:45;;;;;;;;;;;17.20;99.90;;;;;;4934373;28;20397;-85
2023/09/17 08:44:11;;;;;;;;;;;17.30;99.90;;;;;;4933708;28;19933;-86
2023/09/17 08:46:38;;;;;;;;;;;17.40;99.90;;;;;;4934571;29;20022;-85
2023/09/17 08:49:04;;;;;;;;;;;17.50;99.90;;;;;;4934642;29;19939;-85
2023/09/17 08:51:32;;;;;;;;;;;17.50;99.90;;;;;;4934154;29;19982;-86
2023/09/17 08:54:14;;;;;;;;;;;17.60;99.90;;;;;;4934798;28;19953;-86
2023/09/17 08:56:42;;;;;;;;;;;17.80;99.90;;;;;;4935704;28;19939;-88
2023/09/17 08:59:13;;;;;;;;;;;17.80;99.90;;;;;;4928509;29;20370;-87
2023/09/17 09:01:39;;;;;;;;;;;17.90;99.90;;;;;;4934053;29;19931;-88
2023/09/17 09:04:05;;;;;;;;;;;17.90;99.90;;;;;;4933009;29;20021;-86
2023/09/17 09:06:32;;;;;;;;;;;18.00;99.90;;;;;;4934877;28;19927;-88
2023/09/17 09:08:58;;;;;;;;;;;18.00;99.90;;;;;;4933436;29;19927;-88
2023/09/17 09:11:24;;;;;;;;;;;18.10;99.90;;;;;;4934365;28;19977;-87
2023/09/17 09:13:53;;;;;;;;;;;18.10;99.90;;;;;;4934465;29;19967;-86
2023/09/17 09:16:19;;;;;;;;;;;18.20;99.90;;;;;;4934824;28;20005;-87
2023/09/17 09:18:45;;;;;;;;;;;18.40;99.90;;;;;;4933525;28;19938;-87
2023/09/17 09:21:11;;;;;;;;;;;18.50;99.90;;;;;;4932971;28;19934;-86
2023/09/17 09:23:36;;;;;;;;;;;18.60;99.90;;;;;;4936024;28;19931;-88
2023/09/17 09:26:03;;;;;;;;;;;18.70;99.90;;;;;;4933639;29;19977;-86
2023/09/17 09:28:30;;;;;;;;;;;18.80;99.90;;;;;;4934390;28;20316;-87
2023/09/17 09:30:56;;;;;;;;;;;18.80;99.90;;;;;;4932250;29;19930;-87
2023/09/17 09:33:21;;;;;;;;;;;18.90;99.90;;;;;;4917794;28;20721;-87
2023/09/17 09:35:48;;;;;;;;;;;18.90;99.90;;;;;;4918234;29;19927;-88
2023/09/17 09:38:13;;;;;;;;;;;18.90;99.90;;;;;;4939849;29;19927;-86
2023/09/17 09:40:42;;;;;;;;;;;18.90;99.90;;;;;;4935165;29;19953;-87
2023/09/17 09:43:16;;;;;;;;;;;18.90;99.90;;;;;;4919169;29;19934;-87
2023/09/17 09:45:42;;;;;;;;;;;18.80;99.90;;;;;;4932047;28;19926;-88
2023/09/17 09:48:12;;;;;;;;;;;18.80;99.90;;;;;;4932776;29;19931;-88
2023/09/17 09:50:38;;;;;;;;;;;18.80;99.90;;;;;;4925284;28;19927;-86
2023/09/17 09:53:04;;;;;;;;;;;18.90;99.90;;;;;;4934576;29;19927;-87
2023/09/17 09:55:30;;;;;;;;;;;18.90;99.90;;;;;;4933913;28;19992;-87
2023/09/17 09:57:55;;;;;;;;;;;18.90;99.90;;;;;;4934550;29;19945;-87
2023/09/17 10:00:26;;;;;;;;;;;18.90;99.90;;;;;;4935869;29;19927;-86
2023/09/17 10:02:55;;;;;;;;;;;18.90;99.90;;;;;;4935261;29;19934;-87
2023/09/17 10:05:31;;;;;;;;;;;18.90;99.90;;;;;;4933321;28;19927;-86
2023/09/17 10:07:57;;;;;;;;;;;18.90;99.90;;;;;;4932645;29;20275;-85
2023/09/17 10:10:23;;;;;;;;;;;18.90;99.90;;;;;;4936428;28;19981;-86
2023/09/17 10:12:51;;;;;;;;;;;18.90;99.90;;;;;;4932743;29;20302;-85
2023/09/17 10:15:17;;;;;;;;;;;19.00;99.90;;;;;;4917013;29;19973;-87
2023/09/17 10:17:42;;;;;;;;;;;19.10;99.90;;;;;;4934055;29;19926;-86
2023/09/17 10:20:08;;;;;;;;;;;19.10;99.90;;;;;;4916867;29;20370;-86
2023/09/17 10:22:34;;;;;;;;;;;19.10;99.90;;;;;;4915795;28;19927;-87
2023/09/17 10:25:02;;;;;;;;;;;19.10;99.90;;;;;;4932511;29;19927;-86
2023/09/17 10:27:27;;;;;;;;;;;19.10;99.90;;;;;;4936892;29;19934;-87
2023/09/17 10:29:53;;;;;;;;;;;19.00;99.90;;;;;;4933884;29;20358;-86
2023/09/17 10:32:19;;;;;;;;;;;18.90;99.90;;;;;;4933550;29;19927;-86
2023/09/17 10:34:46;;;;;;;;;;;18.90;99.90;;;;;;4931639;28;19930;-86
2023/09/17 10:37:13;;;;;;;;;;;18.90;99.90;;;;;;4953492;28;19927;-86
2023/09/17 10:39:39;;;;;;;;;;;18.90;99.90;;;;;;4931681;29;19927;-85
2023/09/17 10:42:05;;;;;;;;;;;18.90;99.90;;;;;;4932995;29;19945;-87
2023/09/17 10:44:36;;;;;;;;;;;18.90;99.90;;;;;;4917135;28;19931;-86
2023/09/17 10:47:03;;;;;;;;;;;18.80;99.90;;;;;;4931835;29;19931;-86
2023/09/17 10:49:31;;;;;;;;;;;18.80;99.90;;;;;;4926594;28;20018;-86
2023/09/17 10:51:57;;;;;;;;;;;18.70;99.90;;;;;;4929411;29;19931;-85
2023/09/17 10:54:22;;;;;;;;;;;18.70;99.90;;;;;;4933889;28;20365;-86
2023/09/17 10:56:48;;;;;;;;;;;18.70;99.90;;;;;;4929552;29;19931;-84
2023/09/17 10:59:15;;;;;;;;;;;18.70;99.90;;;;;;4930379;29;20390;-87
2023/09/17 11:01:42;;;;;;;;;;;18.60;99.90;;;;;;4929930;29;19927;-86
2023/09/17 11:04:12;;;;;;;;;;;18.60;99.90;;;;;;4931053;28;19931;-86
2023/09/17 11:06:38;;;;;;;;;;;18.60;99.90;;;;;;4931329;29;19974;-85
2023/09/17 11:09:04;;;;;;;;;;;18.60;99.90;;;;;;4915802;29;19950;-85
2023/09/17 11:11:30;;;;;;;;;;;18.70;99.90;;;;;;4930612;29;19974;-86
2023/09/17 11:13:56;;;;;;;;;;;18.70;99.90;;;;;;4915569;29;19978;-89
2023/09/17 11:16:26;;;;;;;;;;;18.80;99.90;;;;;;4928246;29;20396;-86
2023/09/17 11:19:11;;;;;;;;;;;18.90;99.90;;;;;;4911306;28;19926;-84
2023/09/17 11:21:37;;;;;;;;;;;18.90;99.90;;;;;;4909164;29;19926;-84
2023/09/17 11:24:06;;;;;;;;;;;19.00;99.90;;;;;;4930595;29;19958;-85
2023/09/17 11:26:33;;;;;;;;;;;19.10;99.90;;;;;;4928118;28;19930;-84
2023/09/17 11:28:59;;;;;;;;;;;19.20;99.90;;;;;;4931417;29;20022;-84
2023/09/17 11:31:27;;;;;;;;;;;19.30;99.90;;;;;;4931119;29;20009;-84
2023/09/17 11:33:54;;;;;;;;;;;19.40;99.90;;;;;;4929401;29;19931;-84
2023/09/17 11:36:20;;;;;;;;;;;19.60;99.90;;;;;;4929935;29;20340;-84
2023/09/17 11:38:47;;;;;;;;;;;19.90;99.90;;;;;;4930968;29;20009;-84
2023/09/17 11:41:14;;;;;;;;;;;20.00;99.90;;;;;;4930553;29;19927;-84
2023/09/17 11:43:44;;;;;;;;;;;20.20;99.90;;;;;;4917171;28;19934;-84
2023/09/17 11:46:11;;;;;;;;;;;20.30;99.90;;;;;;4924352;29;19930;-84
2023/09/17 11:48:37;;;;;;;;;;;20.40;99.90;;;;;;4927689;28;19933;-84
2023/09/17 11:51:20;;;;;;;;;;;20.50;99.90;;;;;;4929744;28;19938;-84
2023/09/17 11:53:56;;;;;;;;;;;20.50;99.90;;;;;;4926503;29;19936;-85
2023/09/17 11:56:23;;;;;;;;;;;20.60;99.90;;;;;;4931293;28;19934;-84
2023/09/17 11:58:58;;;;;;;;;;;20.60;99.90;;;;;;4928663;29;19927;-84
2023/09/17 12:01:25;;;;;;;;;;;20.60;99.90;;;;;;4930944;29;20026;-85
2023/09/17 12:03:52;;;;;;;;;;;20.70;99.90;;;;;;4920191;29;20002;-84
2023/09/17 12:06:19;;;;;;;;;;;20.70;99.90;;;;;;4929113;28;20313;-84
2023/09/17 12:08:45;;;;;;;;;;;20.80;99.90;;;;;;4996651;28;19966;-85
2023/09/17 12:11:21;;;;;;;;;;;20.90;99.90;;;;;;4929313;29;19930;-84
2023/09/17 12:13:58;;;;;;;;;;;20.90;99.90;;;;;;4928785;28;20373;-84
2023/09/17 12:16:24;;;;;;;;;;;21.00;99.90;;;;;;4929472;29;19934;-85
2023/09/17 12:18:51;;;;;;;;;;;21.00;99.90;;;;;;4930430;28;20262;-85
2023/09/17 12:21:18;;;;;;;;;;;21.00;99.90;;;;;;4930759;29;20072;-88
2023/09/17 12:24:04;;;;;;;;;;;20.90;99.90;;;;;;4929366;28;19927;-85
2023/09/17 12:26:36;;;;;;;;;;;20.80;99.90;;;;;;4930429;29;19927;-84
2023/09/17 12:29:07;;;;;;;;;;;20.60;99.90;;;;;;4929258;29;19938;-85
2023/09/17 12:31:36;;;;;;;;;;;20.60;99.90;;;;;;4931226;29;19974;-84
2023/09/17 12:34:02;;;;;;;;;;;20.50;99.90;;;;;;4934684;28;20008;-84
2023/09/17 12:36:28;;;;;;;;;;;20.40;99.90;;;;;;4934155;29;19981;-83
2023/09/17 12:38:53;;;;;;;;;;;20.40;99.90;;;;;;4934619;29;20377;-84
2023/09/17 12:41:19;;;;;;;;;;;20.30;99.90;;;;;;4933793;29;19927;-83
2023/09/17 12:43:46;;;;;;;;;;;20.30;99.90;;;;;;4932688;29;20568;-84
2023/09/17 12:46:12;;;;;;;;;;;20.20;99.90;;;;;;4926722;29;20056;-85
2023/09/17 12:48:38;;;;;;;;;;;20.20;99.90;;;;;;4933916;29;19934;-85
2023/09/17 12:51:03;;;;;;;;;;;20.20;99.90;;;;;;4977083;28;19925;-85
2023/09/17 12:53:29;;;;;;;;;;;20.20;99.90;;;;;;4945131;28;20457;-84
2023/09/17 12:55:59;;;;;;;;;;;20.20;99.90;;;;;;4933207;28;19931;-84
2023/09/17 12:58:25;;;;;;;;;;;20.10;99.90;;;;;;4935706;29;20455;-84
2023/09/17 13:00:50;;;;;;;;;;;20.20;99.90;;;;;;4934073;29;20040;-83
2023/09/17 13:03:18;;;;;;;;;;;20.20;99.90;;;;;;4933796;28;19931;-84
2023/09/17 13:05:45;;;;;;;;;;;20.20;99.90;;;;;;4932318;28;19949;-83
2023/09/17 13:08:10;;;;;;;;;;;20.20;99.90;;;;;;4941456;28;19927;-83
2023/09/17 13:10:37;;;;;;;;;;;20.30;99.90;;;;;;4935392;28;20021;-85
2023/09/17 13:13:05;;;;;;;;;;;20.30;99.90;;;;;;4934217;29;19948;-84
2023/09/17 13:15:31;;;;;;;;;;;20.40;99.90;;;;;;4934521;29;20400;-82
2023/09/17 13:17:58;;;;;;;;;;;20.40;99.90;;;;;;4935280;29;19934;-84
2023/09/17 13:20:23;;;;;;;;;;;20.50;99.90;;;;;;4925763;29;20009;-84
2023/09/17 13:22:50;;;;;;;;;;;20.50;99.90;;;;;;4935972;28;19980;-84
2023/09/17 13:25:16;;;;;;;;;;;20.50;99.90;;;;;;4935146;29;19934;-82
2023/09/17 13:27:43;;;;;;;;;;;20.50;99.90;;;;;;4934976;29;19931;-86
2023/09/17 13:30:09;;;;;;;;;;;20.40;99.90;;;;;;4932523;28;19934;-83
2023/09/17 13:32:35;;;;;;;;;;;20.40;99.90;;;;;;4938728;29;20049;-83
2023/09/17 13:35:03;;;;;;;;;;;20.30;99.90;;;;;;4935226;29;19927;-83
2023/09/17 13:37:29;;;;;;;;;;;20.20;99.90;;;;;;4937952;28;20788;-83
2023/09/17 13:39:54;;;;;;;;;;;20.10;99.90;;;;;;4932790;29;20010;-83
2023/09/17 13:42:21;;;;;;;;;;;20.10;99.90;;;;;;4933217;28;19927;-84
2023/09/17 13:44:46;;;;;;;;;;;20.00;99.90;;;;;;4933736;29;20290;-84
2023/09/17 13:47:12;;;;;;;;;;;20.00;99.90;;;;;;4933634;29;19927;-83
2023/09/17 13:49:38;;;;;;;;;;;20.10;99.90;;;;;;4931755;29;20010;-86
2023/09/17 13:52:04;;;;;;;;;;;20.20;99.90;;;;;;4916696;28;19931;-85
2023/09/17 13:54:29;;;;;;;;;;;20.30;99.90;;;;;;4933238;28;19931;-84
2023/09/17 13:56:55;;;;;;;;;;;20.30;99.90;;;;;;4928424;29;19942;-83
2023/09/17 13:59:21;;;;;;;;;;;20.40;99.90;;;;;;4963425;28;19981;-84
2023/09/17 14:01:46;;;;;;;;;;;20.40;99.90;;;;;;4914710;29;19934;-83
2023/09/17 14:04:12;;;;;;;;;;;20.50;99.90;;;;;;4961079;28;20439;-83
2023/09/17 14:06:38;;;;;;;;;;;20.60;99.90;;;;;;4930315;29;19982;-82
2023/09/17 14:09:03;;;;;;;;;;;20.70;99.90;;;;;;4934601;28;19927;-83
2023/09/17 14:11:29;;;;;;;;;;;20.90;99.90;;;;;;4933501;29;19927;-83
2023/09/17 14:13:55;;;;;;;;;;;21.10;99.90;;;;;;4932857;29;19966;-82